createdAt,value
2018-06-29T00:01:42.496Z,99.90
2018-06-29T00:04:11.221Z,99.90
2018-06-29T00:16:25.275Z,99.90
2018-06-29T00:18:53.515Z,99.90
2018-06-29T00:21:22.466Z,99.90
2018-06-29T00:23:50.238Z,99.90
2018-06-29T00:26:18.489Z,99.90
2018-06-29T00:28:47.604Z,99.90
2018-06-29T00:31:17.519Z,99.90
2018-06-29T00:33:48.052Z,99.90
2018-06-29T00:36:16.429Z,99.90
2018-06-29T00:38:44.506Z,99.90
2018-06-29T00:41:14.492Z,99.90
2018-06-29T00:53:27.650Z,99.90
2018-06-29T00:55:55.684Z,99.90
2018-06-29T00:58:24.244Z,99.90
2018-06-29T01:00:54.166Z,99.90
2018-06-29T01:03:22.178Z,99.90
2018-06-29T01:05:50.526Z,99.90
2018-06-29T01:08:19.714Z,99.90
2018-06-29T01:10:48.084Z,99.90
2018-06-29T01:13:16.375Z,99.90
2018-06-29T01:15:44.068Z,99.90
2018-06-29T01:18:12.440Z,99.90
2018-06-29T01:20:40.993Z,99.90
2018-06-29T01:23:09.181Z,99.90
2018-06-29T01:25:37.803Z,99.80
2018-06-29T01:28:05.843Z,99.90
2018-06-29T01:40:19.853Z,99.90
2018-06-29T01:42:49.427Z,99.90
2018-06-29T01:45:18.447Z,99.90
2018-06-29T01:47:46.425Z,99.90
2018-06-29T01:50:14.459Z,99.90
2018-06-29T01:52:42.659Z,99.90
2018-06-29T02:04:55.992Z,99.90
2018-06-29T02:07:24.065Z,99.90
2018-06-29T02:09:52.055Z,99.90
2018-06-29T02:12:20.948Z,99.90
2018-06-29T02:14:49.274Z,99.90
2018-06-29T02:17:17.875Z,99.80
2018-06-29T02:19:46.151Z,99.90
2018-06-29T02:22:14.851Z,99.90
2018-06-29T02:24:46.775Z,99.90
2018-06-29T02:27:15.269Z,99.90
2018-06-29T02:29:45.092Z,99.90
2018-06-29T02:41:59.988Z,99.90
2018-06-29T02:44:28.084Z,99.90
2018-06-29T02:46:55.788Z,99.90
2018-06-29T02:49:25.124Z,99.90
2018-06-29T02:51:53.132Z,99.90
2018-06-29T02:54:20.987Z,99.90
2018-06-29T02:56:49.055Z,99.90
2018-06-29T02:59:18.973Z,99.90
2018-06-29T03:01:47.630Z,99.90
2018-06-29T03:04:17.136Z,99.90
2018-06-29T03:06:45.625Z,99.90
2018-06-29T03:09:13.356Z,99.90
2018-06-29T03:11:41.432Z,99.90
2018-06-29T03:14:09.869Z,99.90
2018-06-29T03:16:38.960Z,99.90
2018-06-29T03:19:08.683Z,99.90
2018-06-29T03:21:36.554Z,99.90
2018-06-29T03:24:05.204Z,99.90
2018-06-29T03:29:01.787Z,99.90
2018-06-29T03:31:29.818Z,99.90
2018-06-29T03:33:58.233Z,99.90
2018-06-29T03:36:25.965Z,99.70
2018-06-29T03:41:22.237Z,99.70
2018-06-29T03:43:51.535Z,99.90
2018-06-29T03:46:19.523Z,99.90
2018-06-29T03:48:48.169Z,99.90
2018-06-29T03:51:16.985Z,99.60
2018-06-29T03:53:44.951Z,99.40
2018-06-29T03:56:13.302Z,99.80
2018-06-29T03:58:42.285Z,99.10
2018-06-29T04:01:10.102Z,99.90
2018-06-29T04:03:39.341Z,99.90
2018-06-29T04:06:11.380Z,99.90
2018-06-29T04:08:39.761Z,99.90
2018-06-29T04:11:08.457Z,99.90
2018-06-29T04:13:36.545Z,99.90
2018-06-29T04:16:05.605Z,99.90
2018-06-29T04:18:33.563Z,99.90
2018-06-29T04:21:01.277Z,99.90
2018-06-29T04:23:29.988Z,99.00
2018-06-29T04:28:25.584Z,99.90
2018-06-29T04:30:57.675Z,99.90
2018-06-29T04:33:28.423Z,99.50
2018-06-29T04:45:41.845Z,99.20
2018-06-29T04:48:11.628Z,98.90
2018-06-29T04:50:40.655Z,99.20
2018-06-29T04:53:08.516Z,98.80
2018-06-29T04:55:36.502Z,98.20
2018-06-29T04:58:05.887Z,99.20
2018-06-29T05:00:34.359Z,99.90
2018-06-29T05:03:02.049Z,99.90
2018-06-29T05:05:30.611Z,99.90
2018-06-29T05:07:59.116Z,99.90
2018-06-29T05:10:26.942Z,99.90
2018-06-29T05:12:55.282Z,99.90
2018-06-29T05:15:23.319Z,99.90
2018-06-29T05:17:52.006Z,99.90
2018-06-29T05:20:20.097Z,99.80
2018-06-29T05:22:48.649Z,99.20
2018-06-29T05:25:17.960Z,98.80
2018-06-29T05:27:46.057Z,98.40
2018-06-29T05:30:14.692Z,98.20
2018-06-29T05:32:43.786Z,97.50
2018-06-29T05:48:06.887Z,97.80
2018-06-29T05:50:34.961Z,96.20
2018-06-29T05:53:03.355Z,95.80
2018-06-29T05:55:32.746Z,95.90
2018-06-29T05:58:01.603Z,95.80
2018-06-29T06:00:29.802Z,95.80
2018-06-29T06:12:43.168Z,95.70
2018-06-29T06:15:11.937Z,96.60
2018-06-29T06:17:40.006Z,95.90
2018-06-29T06:20:14.022Z,92.50
2018-06-29T06:32:24.992Z,91.10
2018-06-29T06:34:52.680Z,95.30
2018-06-29T06:37:20.494Z,95.00
2018-06-29T06:42:19.084Z,94.60
2018-06-29T06:44:48.909Z,94.20
2018-06-29T06:47:17.103Z,93.90
2018-06-29T06:49:45.817Z,93.90
2018-06-29T06:52:14.778Z,93.80
2018-06-29T07:04:27.878Z,93.70
2018-06-29T07:06:55.949Z,93.30
2018-06-29T07:09:28.236Z,93.30
2018-06-29T07:11:57.905Z,93.30
2018-06-29T07:14:27.423Z,93.30
2018-06-29T07:16:56.529Z,93.20
2018-06-29T07:19:25.293Z,93.20
2018-06-29T07:21:54.400Z,93.00
2018-06-29T07:24:23.457Z,93.00
2018-06-29T07:26:52.212Z,93.10
2018-06-29T07:29:20.007Z,93.10
2018-06-29T07:31:48.488Z,93.10
2018-06-29T07:34:16.834Z,93.10
2018-06-29T07:36:44.792Z,93.00
2018-06-29T07:39:13.814Z,92.90
2018-06-29T07:41:41.845Z,92.90
2018-06-29T07:44:09.646Z,92.90
2018-06-29T07:46:41.019Z,92.90
2018-06-29T07:49:10.066Z,92.80
2018-06-29T08:01:23.560Z,92.80
2018-06-29T08:03:52.432Z,92.70
2018-06-29T08:06:20.405Z,92.90
2018-06-29T08:08:49.389Z,93.00
2018-06-29T08:11:18.109Z,93.10
2018-06-29T08:13:46.075Z,93.10
2018-06-29T08:26:10.226Z,93.20
2018-06-29T08:28:37.897Z,93.10
2018-06-29T08:31:07.301Z,93.20
2018-06-29T08:33:34.995Z,93.30
2018-06-29T08:36:04.534Z,93.40
2018-06-29T08:38:32.272Z,93.40
2018-06-29T08:41:01.428Z,93.40
2018-06-29T08:43:29.671Z,93.40
2018-06-29T08:45:57.434Z,93.40
2018-06-29T08:48:25.282Z,93.50
2018-06-29T08:50:53.376Z,93.50
2018-06-29T09:06:16.717Z,93.60
2018-06-29T09:08:44.409Z,93.20
2018-06-29T09:11:13.409Z,93.30
2018-06-29T09:13:41.691Z,93.40
2018-06-29T09:16:09.926Z,93.40
2018-06-29T09:18:38.128Z,93.30
2018-06-29T09:21:06.516Z,93.10
2018-06-29T09:23:35.480Z,93.60
2018-06-29T09:26:03.556Z,93.60
2018-06-29T09:28:31.933Z,93.70
2018-06-29T09:30:59.631Z,93.70
2018-06-29T09:33:28.931Z,93.80
2018-06-29T09:35:56.966Z,93.70
2018-06-29T09:38:27.126Z,93.70
2018-06-29T09:40:56.372Z,93.70
2018-06-29T09:43:26.232Z,93.60
2018-06-29T09:55:40.037Z,93.70
2018-06-29T09:58:07.746Z,93.50
2018-06-29T10:00:35.773Z,93.60
2018-06-29T10:03:04.664Z,93.60
2018-06-29T10:05:34.159Z,93.70
2018-06-29T10:08:04.286Z,93.70
2018-06-29T10:10:32.097Z,93.70
2018-06-29T10:13:00.524Z,93.60
2018-06-29T10:15:28.570Z,93.90
2018-06-29T10:17:57.090Z,93.70
2018-06-29T10:20:25.578Z,93.90
2018-06-29T10:22:55.729Z,93.70
2018-06-29T10:25:26.437Z,93.70
2018-06-29T10:27:55.481Z,93.70
2018-06-29T10:30:23.468Z,93.70
2018-06-29T10:32:51.755Z,93.70
2018-06-29T10:35:21.074Z,93.60
2018-06-29T10:37:49.360Z,93.70
2018-06-29T10:40:17.534Z,93.70
2018-06-29T10:52:30.279Z,93.80
2018-06-29T10:57:28.705Z,93.90
2018-06-29T10:59:57.595Z,93.90
2018-06-29T11:02:25.772Z,93.90
2018-06-29T11:04:53.823Z,93.90
2018-06-29T11:07:22.477Z,94.00
2018-06-29T11:09:50.192Z,94.00
2018-06-29T11:12:18.351Z,94.00
2018-06-29T11:24:31.677Z,94.00
2018-06-29T11:27:00.049Z,93.90
2018-06-29T11:29:28.625Z,94.00
2018-06-29T11:31:58.120Z,94.10
2018-06-29T11:34:26.207Z,94.10
2018-06-29T11:36:55.043Z,94.20
2018-06-29T11:39:23.076Z,94.20
2018-06-29T11:51:36.248Z,94.20
2018-06-29T11:54:04.404Z,94.00
2018-06-29T11:56:33.642Z,94.00
2018-06-29T11:59:02.397Z,94.10
2018-06-29T12:01:30.434Z,94.20
2018-06-29T12:03:59.191Z,94.10
2018-06-29T12:06:27.524Z,94.20
2018-06-29T12:08:55.223Z,94.20
2018-06-29T12:11:24.510Z,93.90
2018-06-29T12:13:52.724Z,93.90
2018-06-29T12:16:21.273Z,93.90
2018-06-29T12:18:49.638Z,93.90
2018-06-29T12:21:17.855Z,93.90
2018-06-29T12:23:47.302Z,93.90
2018-06-29T12:26:15.189Z,93.90
2018-06-29T12:38:28.551Z,93.80
2018-06-29T12:50:42.784Z,93.60
2018-06-29T12:53:11.853Z,93.70
2018-06-29T12:55:40.707Z,93.90
2018-06-29T12:58:09.527Z,93.90
2018-06-29T13:00:37.244Z,94.00
2018-06-29T13:03:05.324Z,93.90
2018-06-29T13:05:33.875Z,93.70
2018-06-29T13:08:02.604Z,93.70
2018-06-29T13:10:30.703Z,93.90
2018-06-29T13:12:58.450Z,94.20
2018-06-29T13:15:27.272Z,94.10
2018-06-29T13:17:55.394Z,94.00
2018-06-29T13:20:24.436Z,94.10
2018-06-29T13:22:53.178Z,94.00
2018-06-29T13:25:22.841Z,93.80
2018-06-29T13:27:50.676Z,93.60
2018-06-29T13:30:19.765Z,93.60
2018-06-29T13:32:47.700Z,93.70
2018-06-29T13:35:15.551Z,93.70
2018-06-29T13:37:43.296Z,93.70
2018-06-29T13:40:14.413Z,93.70
2018-06-29T13:42:42.460Z,93.90
2018-06-29T13:45:10.554Z,93.70
2018-06-29T13:47:40.274Z,93.70
2018-06-29T13:50:08.320Z,93.70
2018-06-29T13:52:36.368Z,93.70
2018-06-29T14:04:49.385Z,93.70
2018-06-29T14:17:02.434Z,93.50
2018-06-29T14:29:15.578Z,93.20
2018-06-29T14:31:44.140Z,93.50
2018-06-29T14:34:12.798Z,93.60
2018-06-29T14:39:11.293Z,93.50
2018-06-29T14:41:39.507Z,93.50
2018-06-29T14:44:09.721Z,93.40
2018-06-29T14:56:18.562Z,93.40
2018-06-29T14:58:46.469Z,93.40
2018-06-29T15:01:14.584Z,93.50
2018-06-29T15:03:42.324Z,93.60
2018-06-29T15:06:10.053Z,93.60
2018-06-29T15:08:38.271Z,93.70
2018-06-29T15:11:06.507Z,93.70
2018-06-29T15:13:34.566Z,93.70
2018-06-29T15:16:02.297Z,93.70
2018-06-29T15:18:31.016Z,93.70
2018-06-29T15:21:03.012Z,93.60
2018-06-29T15:23:31.757Z,93.30
2018-06-29T15:26:00.575Z,93.50
2018-06-29T15:28:28.402Z,93.10
2018-06-29T15:30:56.130Z,92.60
2018-06-29T15:33:24.385Z,92.70
2018-06-29T15:35:52.392Z,92.90
2018-06-29T15:38:20.556Z,92.80
2018-06-29T15:40:48.987Z,92.70
2018-06-29T15:53:01.721Z,92.70
2018-06-29T15:55:29.846Z,92.60
2018-06-29T15:57:58.152Z,92.70
2018-06-29T16:00:27.233Z,92.80
2018-06-29T16:02:56.354Z,93.00
2018-06-29T16:05:24.994Z,93.00
2018-06-29T16:07:53.529Z,93.00
2018-06-29T16:10:26.487Z,93.00
2018-06-29T16:22:35.154Z,93.00
2018-06-29T16:25:04.602Z,94.00
2018-06-29T16:27:32.342Z,94.40
2018-06-29T16:30:00.645Z,94.80
2018-06-29T16:32:29.232Z,94.80
2018-06-29T16:35:00.556Z,95.10
2018-06-29T16:37:28.668Z,95.30
2018-06-29T16:39:58.467Z,95.40
2018-06-29T16:42:26.220Z,95.70
2018-06-29T16:44:54.312Z,95.50
2018-06-29T16:47:24.075Z,95.60
2018-06-29T16:49:52.294Z,95.70
2018-06-29T16:52:21.128Z,95.70
2018-06-29T16:57:16.918Z,95.50
2018-06-29T16:59:44.880Z,95.60
2018-06-29T17:11:53.534Z,95.50
2018-06-29T17:14:23.588Z,94.40
2018-06-29T17:16:52.205Z,94.80
2018-06-29T17:19:20.352Z,95.10
2018-06-29T17:21:49.144Z,94.90
2018-06-29T17:34:03.948Z,95.10
2018-06-29T17:36:32.250Z,94.30
2018-06-29T17:39:00.330Z,94.30
2018-06-29T17:41:28.904Z,94.40
2018-06-29T17:43:58.706Z,94.20
2018-06-29T17:46:27.122Z,94.10
2018-06-29T17:48:55.628Z,92.50
2018-06-29T18:01:09.479Z,81.40
2018-06-29T18:03:37.370Z,76.60
2018-06-29T18:06:05.109Z,79.60
2018-06-29T18:08:32.826Z,81.50
2018-06-29T18:11:01.686Z,83.40
2018-06-29T18:13:30.045Z,84.40
2018-06-29T18:15:57.839Z,84.70
2018-06-29T18:18:25.645Z,85.40
2018-06-29T18:20:53.755Z,85.70
2018-06-29T18:23:22.136Z,86.30
2018-06-29T18:25:50.224Z,86.60
2018-06-29T18:28:18.562Z,87.30
2018-06-29T18:30:47.181Z,88.20
2018-06-29T18:33:16.297Z,88.60
2018-06-29T18:35:45.553Z,89.30
2018-06-29T18:38:14.103Z,90.00
2018-06-29T18:40:41.837Z,90.20
2018-06-29T18:43:10.646Z,90.60
2018-06-29T18:45:38.652Z,90.80
2018-06-29T18:48:08.781Z,91.10
2018-06-29T18:50:37.575Z,91.40
2018-06-29T18:53:06.449Z,91.60
2018-06-29T18:55:34.444Z,92.00
2018-06-29T18:58:02.817Z,92.10
2018-06-29T19:10:16.427Z,92.40
2018-06-29T19:12:45.016Z,94.50
2018-06-29T19:15:15.569Z,94.00
2018-06-29T19:17:43.426Z,94.20
2018-06-29T19:20:12.556Z,94.10
2018-06-29T19:22:40.872Z,94.00
2018-06-29T19:25:09.458Z,94.30
2018-06-29T19:27:37.812Z,94.30
2018-06-29T19:30:06.631Z,94.70
2018-06-29T19:32:35.009Z,95.00
2018-06-29T19:35:04.041Z,95.10
2018-06-29T19:37:32.210Z,94.90
2018-06-29T19:39:59.916Z,95.30
2018-06-29T19:42:28.600Z,95.30
2018-06-29T19:44:56.570Z,95.60
2018-06-29T19:47:24.306Z,95.90
2018-06-29T19:49:53.357Z,95.80
2018-06-29T19:52:21.830Z,95.90
2018-06-29T19:54:50.810Z,96.00
2018-06-29T19:57:19.143Z,96.20
2018-06-29T19:59:47.095Z,96.50
2018-06-29T20:02:15.696Z,94.80
2018-06-29T20:04:43.721Z,92.30
2018-06-29T20:07:13.924Z,91.20
2018-06-29T20:09:41.644Z,91.60
2018-06-29T20:12:09.359Z,91.60
2018-06-29T20:14:37.367Z,92.50
2018-06-29T20:17:10.373Z,90.90
2018-06-29T20:19:39.440Z,90.90
2018-06-29T20:22:07.814Z,92.30
2018-06-29T20:24:36.316Z,92.20
2018-06-29T20:36:49.394Z,92.90
2018-06-29T20:39:18.689Z,97.20
2018-06-29T20:41:46.863Z,96.50
2018-06-29T20:44:14.592Z,95.00
2018-06-29T20:46:43.128Z,95.80
2018-06-29T20:49:10.977Z,95.40
2018-06-29T20:51:38.738Z,95.70
2018-06-29T20:54:06.900Z,95.90
2018-06-29T20:56:36.416Z,95.70
2018-06-29T20:59:05.031Z,96.10
2018-06-29T21:01:36.240Z,95.90
2018-06-29T21:13:50.798Z,95.60
2018-06-29T21:16:19.902Z,98.10
2018-06-29T21:18:49.277Z,97.60
2018-06-29T21:21:17.866Z,97.20
2018-06-29T21:23:46.047Z,95.50
2018-06-29T21:26:13.846Z,95.80
2018-06-29T21:28:42.440Z,95.40
2018-06-29T21:31:10.550Z,95.50
2018-06-29T21:33:39.339Z,96.10
2018-06-29T21:36:07.411Z,95.80
2018-06-29T21:38:36.846Z,96.00
2018-06-29T21:41:04.952Z,96.30
2018-06-29T21:43:32.954Z,96.30
2018-06-29T21:46:04.626Z,95.80
2018-06-29T21:48:32.998Z,95.80
2018-06-29T21:51:02.372Z,95.90
2018-06-29T22:03:12.995Z,96.00
2018-06-29T22:05:42.376Z,98.10
2018-06-29T22:08:10.562Z,97.80
2018-06-29T22:13:08.535Z,96.90
2018-06-29T22:15:36.756Z,96.60
2018-06-29T22:18:06.271Z,96.70
2018-06-29T22:20:35.380Z,96.90
2018-06-29T22:23:04.322Z,96.80
2018-06-29T22:28:01.206Z,96.80
2018-06-29T22:30:31.347Z,96.50
2018-06-29T22:32:59.773Z,96.10
2018-06-29T22:35:28.311Z,95.80
2018-06-29T22:37:56.399Z,95.60
2018-06-29T22:40:27.734Z,95.60
2018-06-29T22:42:55.679Z,95.40
2018-06-29T22:45:23.422Z,95.30
2018-06-29T22:47:51.422Z,95.70
2018-06-29T22:50:19.781Z,95.00
2018-06-29T22:52:47.536Z,95.20
2018-06-29T22:55:19.248Z,95.30
2018-06-29T23:07:32.541Z,95.00
2018-06-29T23:19:45.663Z,96.80
2018-06-29T23:22:13.921Z,97.80
2018-06-29T23:24:41.659Z,96.90
2018-06-29T23:27:10.217Z,95.60
2018-06-29T23:29:37.921Z,96.00
2018-06-29T23:32:05.987Z,96.00
2018-06-29T23:34:34.052Z,95.50
2018-06-29T23:37:02.450Z,95.90
2018-06-29T23:39:30.245Z,95.90
2018-06-29T23:41:58.273Z,88.00
2018-06-29T23:44:26.825Z,81.80
2018-06-29T23:46:54.861Z,80.40
2018-06-29T23:49:22.898Z,80.50
